Time;durP1;ratioP1;P1;durP2;ratioP2;P2;SDS_P1;SDS_P2;PMS_P1;PMS_P2;Temp;Humidity;BMP_temperature;BMP_pressure;BME280_temperature;BME280_humidity;BME280_pressure;Samples;Min_cycle;Max_cycle;Signal;HPM_P1;HPM_P2
2023/08/28 00:03:00;;;;;;;54.92;5.07;;;;;;;18.19;58.51;99734.63;10174599;29;20044;-76
2023/08/28 00:08:03;;;;;;;22.45;3.20;;;;;;;18.21;59.41;99765.56;10173465;29;20040;-76
2023/08/28 00:13:04;;;;;;;8.32;2.05;;;;;;;18.14;59.11;99750.63;10173696;29;20044;-76
2023/08/28 00:18:05;;;;;;;15.13;2.60;;;;;;;18.09;59.21;99767.44;10155970;29;20044;-76
2023/08/28 00:23:06;;;;;;;4.68;1.90;;;;;;;18.01;59.72;99763.22;10155696;29;20040;-76
2023/08/28 00:28:07;;;;;;;12.30;2.40;;;;;;;17.41;60.48;99696.13;10173906;29;20051;-76
2023/08/28 00:33:08;;;;;;;5.35;2.20;;;;;;;17.80;60.69;99758.41;10172205;29;20126;-77
2023/08/28 00:38:10;;;;;;;22.20;2.80;;;;;;;17.66;60.93;99735.44;10172353;29;20054;-76
2023/08/28 00:43:10;;;;;;;9.25;2.22;;;;;;;16.80;61.04;99608.59;10155450;29;20047;-76
2023/08/28 00:48:15;;;;;;;13.15;2.85;;;;;;;17.42;62.57;99724.59;10172553;29;20070;-76
2023/08/28 00:53:16;;;;;;;6.50;2.17;;;;;;;17.20;61.58;99700.13;10172727;29;20107;-76
2023/08/28 00:58:17;;;;;;;23.35;2.53;;;;;;;17.25;62.05;99723.59;10161260;29;20488;-76
2023/08/28 01:03:18;;;;;;;26.00;3.40;;;;;;;16.91;62.54;99663.34;10147214;29;20049;-76
2023/08/28 01:08:57;;;;;;;13.48;2.65;;;;;;;17.31;64.68;99733.41;10140928;29;20044;-76
2023/08/28 01:14:12;;;;;;;17.35;3.17;;;;;;;17.05;65.09;99729.19;10140210;29;20076;-76
2023/08/28 01:19:27;;;;;;;22.67;3.08;;;;;;;17.02;65.25;99735.00;10141336;29;20092;-77
2023/08/28 01:24:30;;;;;;;37.95;4.35;;;;;;;16.47;64.59;99663.41;10123708;29;20469;-76
2023/08/28 01:29:31;;;;;;;15.37;2.90;;;;;;;16.85;64.31;99710.69;10140011;29;20569;-76
2023/08/28 01:34:32;;;;;;;20.52;3.95;;;;;;;16.98;64.43;99728.47;10140782;29;20131;-76
2023/08/28 01:39:41;;;;;;;27.52;3.88;;;;;;;16.79;66.21;99711.56;10140601;29;20040;-76
2023/08/28 01:44:43;;;;;;;29.08;3.00;;;;;;;16.75;65.79;99716.53;10139752;29;20041;-77
2023/08/28 01:49:44;;;;;;;7.25;2.67;;;;;;;16.84;65.55;99711.69;10140030;29;20135;-77
2023/08/28 01:54:45;;;;;;;31.73;3.70;;;;;;;16.69;66.11;99703.19;10139287;29;20049;-76
2023/08/28 01:59:46;;;;;;;100.00;7.00;;;;;;;16.56;66.47;99728.28;10164286;29;20080;-76
2023/08/28 02:04:47;;;;;;;133.75;11.48;;;;;;;16.11;66.85;99650.81;10140061;29;20072;-76
2023/08/28 02:09:48;;;;;;;26.17;4.25;;;;;;;16.65;67.52;99740.38;10141399;29;20484;-76
2023/08/28 02:14:48;;;;;;;27.13;4.35;;;;;;;16.64;67.92;99736.06;10175844;29;20126;-77
2023/08/28 02:19:49;;;;;;;37.22;4.60;;;;;;;16.65;68.40;99735.81;10177771;29;20131;-76
2023/08/28 02:24:50;;;;;;;131.75;10.85;;;;;;;16.27;68.47;99677.00;10160728;29;20559;-77
2023/08/28 02:29:52;;;;;;;63.63;7.43;;;;;;;16.65;69.12;99743.84;10176436;29;20143;-76
2023/08/28 02:34:53;;;;;;;62.20;5.63;;;;;;;16.56;68.52;99737.16;10157534;29;20048;-77
2023/08/28 02:39:54;;;;;;;8.38;2.72;;;;;;;16.09;68.11;99661.72;10120608;29;20497;-76
2023/08/28 02:44:54;;;;;;;31.30;3.67;;;;;;;16.53;68.05;99732.22;10138728;29;20127;-77
2023/08/28 02:49:55;;;;;;;125.60;8.57;;;;;;;16.06;68.46;99666.72;10137835;29;20060;-77
2023/08/28 02:54:56;;;;;;;95.07;7.78;;;;;;;16.54;68.76;99755.34;10119975;29;20052;-76
2023/08/28 02:59:57;;;;;;;151.93;12.75;;;;;;;16.71;68.92;99750.19;10137288;29;20128;-76
2023/08/28 03:04:57;;;;;;;147.57;11.68;;;;;;;16.93;69.05;99741.72;10136360;29;20040;-77
2023/08/28 03:09:58;;;;;;;80.47;7.63;;;;;;;17.25;68.86;99745.88;10120009;29;20048;-77
2023/08/28 03:14:59;;;;;;;213.88;14.38;;;;;;;17.48;68.54;99721.00;10135727;29;20051;-77
2023/08/28 03:20:00;;;;;;;201.13;16.25;;;;;;;18.11;67.18;99737.66;10135764;29;20052;-77
2023/08/28 03:25:00;;;;;;;17.40;3.58;;;;;;;18.59;64.84;99683.63;10135668;29;20037;-77
2023/08/28 03:30:01;;;;;;;39.08;4.53;;;;;;;19.80;62.01;99683.53;10135246;29;20090;-77
2023/08/28 03:35:02;;;;;;;84.93;7.28;;;;;;;21.31;59.37;99732.81;10135512;29;20516;-76
2023/08/28 03:40:04;;;;;;;21.25;3.17;;;;;;;22.14;56.20;99705.50;10118754;29;20047;-77
2023/08/28 03:45:05;;;;;;;225.32;14.32;;;;;;;23.20;54.10;99725.31;10135636;29;20040;-78
2023/08/28 03:50:06;;;;;;;22.33;3.78;;;;;;;24.30;51.36;99715.94;10152454;29;20064;-80
2023/08/28 03:55:08;;;;;;;23.50;3.80;;;;;;;24.90;49.59;99721.50;10148640;29;20044;-78
2023/08/28 04:00:11;;;;;;;55.88;4.50;;;;;;;25.23;48.33;99654.78;10143674;29;20063;-79
2023/08/28 04:05:12;;;;;;;19.00;3.42;;;;;;;26.49;45.95;99727.50;10149809;29;20043;-80
2023/08/28 04:10:13;;;;;;;12.52;3.10;;;;;;;26.59;44.61;99712.94;10145656;29;20063;-79
2023/08/28 04:15:14;;;;;;;18.75;3.30;;;;;;;27.10;43.69;99717.78;10133654;29;20041;-80
2023/08/28 04:20:16;;;;;;;15.82;3.30;;;;;;;27.68;42.86;99719.44;10134176;29;20056;-79
2023/08/28 04:25:18;;;;;;;16.85;3.33;;;;;;;28.08;41.56;99731.63;10154715;29;20041;-78
2023/08/28 04:30:18;;;;;;;47.47;4.93;;;;;;;28.10;41.93;99710.31;10157269;29;20035;-79
2023/08/28 04:35:19;;;;;;;15.00;4.00;;;;;;;28.19;41.14;99705.78;10166225;29;20504;-80
2023/08/28 04:40:20;;;;;;;16.50;2.92;;;;;;;28.49;40.37;99714.53;10169674;29;20431;-80
2023/08/28 04:45:21;;;;;;;14.68;3.10;;;;;;;28.14;40.57;99697.66;10171915;29;20051;-80
2023/08/28 04:50:22;;;;;;;35.50;3.80;;;;;;;27.84;40.29;99671.72;10147762;29;20116;-78
2023/08/28 04:55:23;;;;;;;14.88;2.67;;;;;;;27.27;40.69;99665.50;10134018;29;20104;-78
2023/08/28 05:00:23;;;;;;;22.85;3.67;;;;;;;27.16;40.69;99692.09;10133026;29;20564;-78
2023/08/28 05:05:24;;;;;;;11.38;2.83;;;;;;;26.50;42.03;99641.13;10132817;29;20052;-79
2023/08/28 05:10:25;;;;;;;13.20;2.70;;;;;;;25.98;41.97;99581.00;10133718;29;20041;-79
2023/08/28 05:15:26;;;;;;;9.32;3.00;;;;;;;26.23;41.83;99620.72;10132250;29;20044;-79
2023/08/28 05:20:28;;;;;;;15.02;2.92;;;;;;;26.04;42.42;99663.41;10133040;29;20040;-78
2023/08/28 05:25:30;;;;;;;13.77;3.77;;;;;;;26.06;43.23;99662.03;10132520;29;20049;-79
2023/08/28 05:30:32;;;;;;;11.77;2.97;;;;;;;25.74;42.83;99575.50;10132474;29;20044;-78
2023/08/28 05:35:33;;;;;;;19.63;3.35;;;;;;;26.00;43.56;99569.84;10132874;29;20036;-79
2023/08/28 05:40:33;;;;;;;10.30;2.80;;;;;;;26.57;42.79;99614.38;10132765;29;20104;-79
2023/08/28 05:45:34;;;;;;;10.30;2.92;;;;;;;26.53;41.89;99596.97;10132144;29;20505;-78
2023/08/28 05:50:36;;;;;;;18.13;2.80;;;;;;;26.78;41.58;99607.56;10137310;29;20048;-79
2023/08/28 05:55:37;;;;;;;6.65;2.83;;;;;;;26.93;41.14;99586.66;10139515;29;20465;-79
2023/08/28 06:00:38;;;;;;;10.38;3.13;;;;;;;27.25;41.13;99630.34;10140271;29;20131;-79
2023/08/28 06:05:39;;;;;;;7.05;2.97;;;;;;;27.51;41.08;99655.28;10139583;29;20047;-79
2023/08/28 06:10:40;;;;;;;13.93;2.70;;;;;;;26.98;41.21;99592.00;10138944;29;20497;-78
2023/08/28 06:15:41;;;;;;;8.90;2.58;;;;;;;27.26;41.43;99617.53;10136885;29;20044;-79
2023/08/28 06:20:41;;;;;;;6.07;2.40;;;;;;;26.86;40.91;99529.78;10138638;29;20036;-78
2023/08/28 06:25:42;;;;;;;10.63;2.67;;;;;;;27.37;40.66;99556.25;10137680;29;20088;-79
2023/08/28 06:30:43;;;;;;;12.93;3.17;;;;;;;28.06;40.04;99591.91;10137289;29;20515;-79
2023/08/28 06:35:44;;;;;;;18.50;3.85;;;;;;;28.13;40.17;99537.69;10137536;29;20055;-79
2023/08/28 06:40:52;;;;;;;11.15;2.72;;;;;;;28.43;39.08;99552.66;10138163;29;20052;-79
2023/08/28 06:45:52;;;;;;;8.27;2.90;;;;;;;29.03;38.16;99635.56;10121648;29;20199;-79
2023/08/28 06:50:53;;;;;;;24.38;3.42;;;;;;;28.24;38.52;99472.75;10137512;29;20135;-79
2023/08/28 06:55:54;;;;;;;13.55;3.10;;;;;;;29.56;36.81;99624.72;10137287;29;20076;-78
2023/08/28 07:00:54;;;;;;;9.35;2.90;;;;;;;29.51;35.76;99604.88;10136218;29;20044;-78
2023/08/28 07:05:55;;;;;;;10.73;3.20;;;;;;;29.70;35.00;99585.53;10120243;29;20044;-78
2023/08/28 07:10:56;;;;;;;8.23;2.47;;;;;;;29.89;33.64;99594.34;10136131;29;20041;-78
2023/08/28 07:16:00;;;;;;;15.38;2.53;;;;;;;30.28;33.27;99609.19;10136466;29;20052;-79
2023/08/28 07:21:01;;;;;;;9.43;3.10;;;;;;;30.14;32.88;99539.97;10136106;29;20565;-78
2023/08/28 07:26:02;;;;;;;12.10;2.55;;;;;;;30.01;31.83;99456.81;10136478;29;20105;-78
2023/08/28 07:31:03;;;;;;;15.95;2.55;;;;;;;30.74;31.62;99536.56;10135993;29;20087;-78
2023/08/28 07:36:05;;;;;;;9.23;2.40;;;;;;;31.10;30.43;99568.34;10135686;29;20776;-78
2023/08/28 07:41:05;;;;;;;9.13;2.40;;;;;;;30.28;29.33;99413.88;10135419;29;20051;-78
2023/08/28 07:46:06;;;;;;;18.25;3.13;;;;;;;30.64;30.02;99449.16;10135154;29;20383;-78
2023/08/28 07:51:09;;;;;;;4.30;2.40;;;;;;;31.31;28.60;99549.28;10136088;29;20079;-78
2023/08/28 07:56:10;;;;;;;;;;;;;;;31.70;29.58;99540.00;10135250;29;20144;-77
2023/08/28 08:01:11;;;;;;;13.53;2.50;;;;;;;31.36;28.62;99506.03;10118179;29;19925;-78
2023/08/28 08:06:12;;;;;;;7.75;2.30;;;;;;;30.97;28.34;99429.47;10134172;29;20051;-78
2023/08/28 08:11:13;;;;;;;10.35;2.60;;;;;;;31.40;27.97;99461.47;10134735;29;20044;-78
2023/08/28 08:16:13;;;;;;;7.63;2.40;;;;;;;31.12;27.13;99401.50;10133541;29;20053;-77
2023/08/28 08:21:15;;;;;;;12.50;2.50;;;;;;;31.89;27.37;99501.16;10133841;29;20055;-78
2023/08/28 08:26:16;;;;;;;20.37;2.80;;;;;;;31.62;27.58;99431.03;10132394;29;20100;-78
2023/08/28 08:31:17;;;;;;;9.73;2.30;;;;;;;31.78;27.02;99421.09;10134290;29;20108;-77
2023/08/28 08:36:17;;;;;;;8.15;2.70;;;;;;;31.81;27.36;99386.66;10133742;29;20048;-78
2023/08/28 08:41:18;;;;;;;9.73;2.80;;;;;;;31.67;26.82;99359.44;10133768;29;20044;-77
2023/08/28 08:46:19;;;;;;;18.88;3.15;;;;;;;32.44;26.42;99442.50;10134033;29;20440;-78
2023/08/28 08:51:25;;;;;;;12.07;2.50;;;;;;;32.53;26.54;99455.38;10133801;29;20040;-78
2023/08/28 08:56:29;;;;;;;8.98;2.40;;;;;;;32.54;24.50;99444.03;10133659;29;20509;-77
2023/08/28 09:01:31;;;;;;;50.00;4.25;;;;;;;32.75;25.65;99400.00;10116745;29;20041;-83
2023/08/28 09:06:34;;;;;;;11.73;2.67;;;;;;;32.70;25.27;99411.22;10133305;29;20037;-80
2023/08/28 09:11:36;;;;;;;10.00;2.15;;;;;;;31.98;25.08;99311.59;10133093;29;20168;-79
2023/08/28 09:16:37;;;;;;;13.50;2.38;;;;;;;32.54;25.13;99377.25;10132792;29;20045;-79
2023/08/28 09:21:38;;;;;;;11.75;2.25;;;;;;;32.69;24.56;99382.91;10133150;29;20184;-78
2023/08/28 09:26:39;;;;;;;12.25;2.30;;;;;;;32.53;24.35;99307.72;10139563;29;20051;-79
2023/08/28 09:31:42;;;;;;;14.98;2.45;;;;;;;33.37;23.90;99395.44;10140338;29;20048;-78
2023/08/28 09:36:43;;;;;;;7.25;1.83;;;;;;;32.23;22.66;99258.38;10123641;29;20529;-79
2023/08/28 09:41:49;;;;;;;5.18;1.83;;;;;;;32.74;22.74;99348.91;10140361;29;20067;-78
2023/08/28 09:46:50;;;;;;;10.60;2.40;;;;;;;32.94;22.89;99347.22;10139569;29;20063;-78
2023/08/28 09:51:51;;;;;;;14.15;2.38;;;;;;;32.09;22.92;99200.16;10139675;29;20052;-77
2023/08/28 09:56:52;;;;;;;18.90;2.08;;;;;;;33.25;23.20;99368.72;10139625;29;20131;-77
2023/08/28 10:01:53;;;;;;;19.13;2.58;;;;;;;33.21;23.67;99343.03;10138935;29;20048;-79
2023/08/28 10:06:57;;;;;;;14.05;2.33;;;;;;;33.60;22.88;99349.00;10140051;29;20097;-78
2023/08/28 10:12:00;;;;;;;10.90;2.28;;;;;;;33.30;24.11;99301.63;10138853;29;20040;-77
2023/08/28 10:17:04;;;;;;;16.77;2.25;;;;;;;33.68;21.70;99350.81;10139380;29;20043;-78
2023/08/28 10:22:07;;;;;;;5.95;2.10;;;;;;;33.61;22.76;99348.66;10138064;29;20057;-79
2023/08/28 10:27:14;;;;;;;12.23;2.10;;;;;;;33.80;22.64;99338.97;10139163;29;20565;-78
2023/08/28 10:32:15;;;;;;;7.20;2.50;;;;;;;33.52;22.75;99262.63;10138361;29;20048;-78
2023/08/28 10:37:17;;;;;;;37.25;3.95;;;;;;;33.57;22.83;99236.81;10120109;29;20092;-77
2023/08/28 10:42:18;;;;;;;;;;;;;;;34.31;23.34;99322.75;10145912;29;20051;-77
2023/08/28 10:47:20;;;;;;;6.87;2.10;;;;;;;33.57;22.70;99270.66;10148373;29;19951;-77
2023/08/28 10:52:21;;;;;;;9.15;1.85;;;;;;;33.38;22.30;99212.59;10148407;29;20465;-77
2023/08/28 10:57:27;;;;;;;12.18;2.40;;;;;;;33.96;21.74;99303.25;10137297;29;20516;-77
2023/08/28 11:03:07;;;;;;;6.50;2.00;;;;;;;34.16;22.62;99304.22;10136966;29;20108;-77
2023/08/28 11:08:11;;;;;;;10.93;2.07;;;;;;;33.93;22.11;99274.44;10137229;29;20041;-77
2023/08/28 11:13:23;;;;;;;6.72;1.92;;;;;;;34.11;21.02;99294.25;10136512;29;20540;-76
2023/08/28 11:18:29;;;;;;;11.93;1.63;;;;;;;33.93;20.82;99279.16;10135968;29;20091;-77
2023/08/28 11:23:35;;;;;;;4.28;1.27;;;;;;;33.84;20.53;99288.34;10119050;29;20068;-77
2023/08/28 11:28:47;;;;;;;4.40;1.70;;;;;;;33.91;20.70;99276.72;10135557;29;20506;-77
2023/08/28 11:33:52;;;;;;;;;;;;;;;34.17;21.04;99281.81;10136147;29;20508;-78
2023/08/28 11:38:55;;;;;;;12.70;1.83;;;;;;;33.39;21.09;99176.47;10135648;29;19919;-77
2023/08/28 11:43:55;;;;;;;14.57;2.00;;;;;;;34.03;22.35;99273.16;10146729;29;20040;-79
2023/08/28 11:48:56;;;;;;;12.80;2.08;;;;;;;33.55;21.46;99184.81;10200117;29;20055;-79
2023/08/28 11:53:59;;;;;;;6.45;1.48;;;;;;;34.01;20.88;99273.47;10211425;29;20054;-78
2023/08/28 11:58:59;;;;;;;5.65;1.77;;;;;;;33.89;20.27;99231.41;10203372;29;20048;-79
2023/08/28 12:04:04;;;;;;;20.85;3.22;;;;;;;34.00;20.68;99236.06;10189689;29;20401;-78
2023/08/28 12:09:09;;;;;;;5.72;1.60;;;;;;;33.92;20.34;99238.97;10206734;29;20043;-79
2023/08/28 12:14:17;;;;;;;7.70;2.28;;;;;;;33.70;20.88;99193.50;10196030;29;20040;-78
2023/08/28 12:19:23;;;;;;;8.73;1.90;;;;;;;33.89;21.00;99218.41;10201277;29;20176;-78
2023/08/28 12:24:26;;;;;;;14.93;2.60;;;;;;;33.77;21.26;99212.97;10207831;29;20044;-78
2023/08/28 12:29:27;;;;;;;6.82;1.83;;;;;;;33.13;21.38;99091.59;10210328;29;20039;-76
2023/08/28 12:34:30;;;;;;;4.63;1.80;;;;;;;33.41;21.16;99145.84;10156399;29;20047;-78
2023/08/28 12:39:31;;;;;;;;;;;;;;;34.11;21.20;99217.09;10197516;29;20046;-79
2023/08/28 12:44:32;;;;;;;9.30;2.00;;;;;;;33.63;21.45;99164.59;10170617;29;19923;-78
2023/08/28 12:49:32;;;;;;;5.80;1.80;;;;;;;33.88;21.36;99210.53;10207900;29;20066;-78
2023/08/28 12:54:38;;;;;;;6.63;1.88;;;;;;;33.85;21.34;99212.81;10200069;29;20048;-78
2023/08/28 12:59:39;;;;;;;5.40;2.10;;;;;;;33.85;21.34;99209.25;10179848;29;20507;-77
2023/08/28 13:04:42;;;;;;;34.47;2.65;;;;;;;33.02;21.38;99078.66;10169269;29;20052;-77
2023/08/28 13:09:43;;;;;;;8.68;1.80;;;;;;;33.57;21.35;99157.75;10208564;29;20044;-78
2023/08/28 13:14:44;;;;;;;9.65;1.65;;;;;;;33.71;21.50;99179.34;10150691;29;20104;-78
2023/08/28 13:19:45;;;;;;;9.32;2.08;;;;;;;33.52;21.50;99151.69;10167847;29;20559;-77
2023/08/28 13:24:46;;;;;;;4.72;1.80;;;;;;;33.42;21.86;99156.50;10158998;29;20048;-75
2023/08/28 13:29:47;;;;;;;12.68;2.28;;;;;;;33.21;21.55;99139.38;10206795;29;20040;-75
2023/08/28 13:34:48;;;;;;;14.80;2.50;;;;;;;32.95;21.90;99115.00;10217666;29;20051;-75
2023/08/28 13:39:48;;;;;;;11.48;2.15;;;;;;;33.32;21.86;99165.25;10217535;29;20032;-76
2023/08/28 13:44:51;;;;;;;9.23;1.65;;;;;;;33.23;21.58;99156.34;10217653;29;20043;-77
2023/08/28 13:49:52;;;;;;;24.23;2.70;;;;;;;33.37;22.06;99181.53;10217676;29;20051;-77
2023/08/28 13:54:53;;;;;;;19.03;7.73;;;;;;;32.91;21.97;99119.59;10217205;29;20051;-77
2023/08/28 13:59:54;;;;;;;23.02;4.00;;;;;;;33.15;21.73;99174.59;10203952;29;20041;-76
2023/08/28 14:04:55;;;;;;;45.17;4.80;;;;;;;32.77;22.85;99152.16;10133612;29;20055;-76
2023/08/28 14:09:56;;;;;;;17.75;2.28;;;;;;;32.64;22.27;99132.94;10169656;29;20044;-76
2023/08/28 14:14:59;;;;;;;10.20;2.33;;;;;;;32.57;22.79;99138.19;10177170;29;20564;-76
2023/08/28 14:19:59;;;;;;;5.57;1.90;;;;;;;32.71;22.49;99168.88;10122846;29;20560;-76
2023/08/28 14:25:00;;;;;;;31.45;4.82;;;;;;;32.28;22.99;99118.00;10178733;29;20040;-76
2023/08/28 14:30:02;;;;;;;30.05;3.03;;;;;;;32.51;22.73;99172.53;10177754;29;20040;-76
2023/08/28 14:35:03;;;;;;;13.68;2.08;;;;;;;32.25;22.85;99154.41;10177682;29;20048;-76
2023/08/28 14:40:05;;;;;;;16.45;2.50;;;;;;;32.15;23.75;99170.53;10176977;29;20511;-76
2023/08/28 14:45:07;;;;;;;16.65;2.58;;;;;;;31.67;23.88;99125.28;10153296;29;20044;-76
2023/08/28 14:50:09;;;;;;;45.40;4.10;;;;;;;31.68;25.37;99168.91;10150218;29;20052;-75
2023/08/28 14:55:10;;;;;;;103.27;9.83;;;;;;;31.21;26.48;99127.94;10137218;29;20115;-76
2023/08/28 15:00:12;;;;;;;161.65;13.23;;;;;;;31.07;27.59;99168.53;10137622;29;20048;-76
2023/08/28 15:05:12;;;;;;;315.43;25.97;;;;;;;30.74;28.99;99152.75;10136703;29;20083;-76
2023/08/28 15:10:13;;;;;;;195.82;15.93;;;;;;;29.50;30.21;99034.16;10136738;29;20064;-76
2023/08/28 15:15:14;;;;;;;78.43;9.10;;;;;;;30.03;29.80;99159.63;10136787;29;20040;-75
2023/08/28 15:20:15;;;;;;;66.40;7.75;;;;;;;29.42;30.30;99115.09;10136315;29;20053;-76
2023/08/28 15:25:16;;;;;;;270.60;20.98;;;;;;;29.36;31.96;99160.16;10136617;29;20045;-75
2023/08/28 15:30:17;;;;;;;76.80;7.80;;;;;;;28.76;32.22;99119.84;10135121;29;20071;-76
2023/08/28 15:35:18;;;;;;;175.43;15.70;;;;;;;28.59;33.86;99154.19;10136404;29;20523;-75
2023/08/28 15:40:21;;;;;;;58.00;7.47;;;;;;;28.27;35.30;99160.81;10134441;29;20040;-75
2023/08/28 15:45:22;;;;;;;75.85;7.40;;;;;;;27.92;35.90;99151.63;10135960;29;20044;-74
2023/08/28 15:50:23;;;;;;;134.82;11.05;;;;;;;27.50;36.95;99153.72;10136015;29;20067;-76
2023/08/28 15:55:24;;;;;;;77.63;7.35;;;;;;;27.04;37.60;99139.19;10135854;29;20055;-75
2023/08/28 16:00:25;;;;;;;140.30;11.07;;;;;;;25.94;38.28;99008.56;10134645;29;20064;-74
2023/08/28 16:05:27;;;;;;;120.30;9.50;;;;;;;26.61;39.66;99185.84;10135659;29;20040;-75
2023/08/28 16:10:28;;;;;;;219.45;17.00;;;;;;;25.95;39.73;99119.78;10164442;29;20040;-74
2023/08/28 16:15:30;;;;;;;191.13;15.07;;;;;;;26.03;40.10;99175.47;10174087;29;20132;-81
2023/08/28 16:20:31;;;;;;;113.03;10.38;;;;;;;24.88;40.69;99031.75;10177749;29;20051;-82
2023/08/28 16:25:32;;;;;;;74.90;7.72;;;;;;;25.61;41.57;99184.56;10140073;29;20067;-83
2023/08/28 16:30:34;;;;;;;60.17;6.20;;;;;;;24.98;42.39;99109.63;10144136;29;20044;-82
2023/08/28 16:35:36;;;;;;;81.88;7.38;;;;;;;24.91;42.66;99139.03;10156325;29;20509;-83
2023/08/28 16:40:37;;;;;;;158.55;10.55;;;;;;;24.25;43.56;99078.19;10151008;29;20039;-83
2023/08/28 17:23:22;;;;;;;39.13;4.85;;;;;;;23.68;49.03;99213.47;10076285;29;20053;-83
2023/08/28 22:53:28;;;;;;;14.30;4.63;;;;;;;18.16;57.72;98945.66;9831599;30;20052;-80
